sensor_id;sensor_type;location;lat;lon;timestamp;P1;durP1;ratioP1;P2;durP2;ratioP2
60430;SDS011;46285;45.122;20.726;2022-08-18T00:00:31;11.70;;;6.90;;
60430;SDS011;46285;45.122;20.726;2022-08-18T00:02:59;13.13;;;6.38;;
60430;SDS011;46285;45.122;20.726;2022-08-18T00:05:25;13.52;;;6.45;;
60430;SDS011;46285;45.122;20.726;2022-08-18T00:07:51;13.98;;;6.40;;
60430;SDS011;46285;45.122;20.726;2022-08-18T00:10:18;17.73;;;7.88;;
60430;SDS011;46285;45.122;20.726;2022-08-18T00:12:44;12.45;;;6.65;;
60430;SDS011;46285;45.122;20.726;2022-08-18T00:15:12;14.68;;;6.20;;
60430;SDS011;46285;45.122;20.726;2022-08-18T00:17:38;15.30;;;7.65;;
60430;SDS011;46285;45.122;20.726;2022-08-18T00:20:10;11.77;;;6.47;;
60430;SDS011;46285;45.122;20.726;2022-08-18T00:22:37;11.43;;;6.50;;
60430;SDS011;46285;45.122;20.726;2022-08-18T00:25:08;10.27;;;6.88;;
60430;SDS011;46285;45.122;20.726;2022-08-18T00:27:35;11.98;;;6.93;;
60430;SDS011;46285;45.122;20.726;2022-08-18T00:32:29;12.27;;;7.80;;
60430;SDS011;46285;45.122;20.726;2022-08-18T00:35:03;14.10;;;7.13;;
60430;SDS011;46285;45.122;20.726;2022-08-18T00:37:29;11.82;;;6.60;;
60430;SDS011;46285;45.122;20.726;2022-08-18T00:39:55;10.75;;;7.40;;
60430;SDS011;46285;45.122;20.726;2022-08-18T00:42:23;12.18;;;7.32;;
60430;SDS011;46285;45.122;20.726;2022-08-18T00:44:50;11.50;;;7.97;;
60430;SDS011;46285;45.122;20.726;2022-08-18T00:47:16;12.38;;;7.25;;
60430;SDS011;46285;45.122;20.726;2022-08-18T00:49:42;13.15;;;6.68;;
60430;SDS011;46285;45.122;20.726;2022-08-18T00:54:36;12.60;;;7.65;;
60430;SDS011;46285;45.122;20.726;2022-08-18T00:57:04;11.48;;;8.00;;
60430;SDS011;46285;45.122;20.726;2022-08-18T00:59:33;12.35;;;7.32;;
60430;SDS011;46285;45.122;20.726;2022-08-18T01:02:00;11.55;;;7.68;;
60430;SDS011;46285;45.122;20.726;2022-08-18T01:06:54;12.27;;;7.53;;
60430;SDS011;46285;45.122;20.726;2022-08-18T01:09:24;14.18;;;7.35;;
60430;SDS011;46285;45.122;20.726;2022-08-18T01:11:51;13.40;;;7.53;;
60430;SDS011;46285;45.122;20.726;2022-08-18T01:14:17;11.32;;;7.85;;
60430;SDS011;46285;45.122;20.726;2022-08-18T01:16:45;11.80;;;7.68;;
60430;SDS011;46285;45.122;20.726;2022-08-18T01:19:31;12.57;;;7.25;;
60430;SDS011;46285;45.122;20.726;2022-08-18T01:22:18;13.25;;;7.70;;
60430;SDS011;46285;45.122;20.726;2022-08-18T01:24:46;12.63;;;8.20;;
60430;SDS011;46285;45.122;20.726;2022-08-18T01:27:33;10.80;;;7.63;;
60430;SDS011;46285;45.122;20.726;2022-08-18T01:30:09;13.60;;;9.10;;
60430;SDS011;46285;45.122;20.726;2022-08-18T01:32:36;14.65;;;8.55;;
60430;SDS011;46285;45.122;20.726;2022-08-18T01:35:07;12.48;;;8.05;;
60430;SDS011;46285;45.122;20.726;2022-08-18T01:37:34;13.25;;;8.15;;
60430;SDS011;46285;45.122;20.726;2022-08-18T01:40:00;13.48;;;8.55;;
60430;SDS011;46285;45.122;20.726;2022-08-18T01:42:30;11.35;;;8.80;;
60430;SDS011;46285;45.122;20.726;2022-08-18T01:44:56;19.73;;;8.70;;
60430;SDS011;46285;45.122;20.726;2022-08-18T01:47:22;19.20;;;9.02;;
60430;SDS011;46285;45.122;20.726;2022-08-18T01:49:49;11.02;;;7.70;;
60430;SDS011;46285;45.122;20.726;2022-08-18T01:52:18;13.00;;;8.55;;
60430;SDS011;46285;45.122;20.726;2022-08-18T01:54:48;16.98;;;8.32;;
60430;SDS011;46285;45.122;20.726;2022-08-18T01:57:14;14.38;;;7.75;;
60430;SDS011;46285;45.122;20.726;2022-08-18T01:59:41;11.25;;;8.63;;
60430;SDS011;46285;45.122;20.726;2022-08-18T02:02:08;11.82;;;8.52;;
60430;SDS011;46285;45.122;20.726;2022-08-18T02:07:03;12.98;;;8.35;;
60430;SDS011;46285;45.122;20.726;2022-08-18T02:09:30;12.68;;;8.70;;
60430;SDS011;46285;45.122;20.726;2022-08-18T02:11:56;12.57;;;8.60;;
60430;SDS011;46285;45.122;20.726;2022-08-18T02:14:24;13.35;;;9.75;;
60430;SDS011;46285;45.122;20.726;2022-08-18T02:16:50;14.52;;;8.80;;
60430;SDS011;46285;45.122;20.726;2022-08-18T02:19:16;13.65;;;9.00;;
60430;SDS011;46285;45.122;20.726;2022-08-18T02:21:43;16.23;;;9.02;;
60430;SDS011;46285;45.122;20.726;2022-08-18T02:24:10;13.52;;;7.95;;
60430;SDS011;46285;45.122;20.726;2022-08-18T02:26:37;11.43;;;8.18;;
60430;SDS011;46285;45.122;20.726;2022-08-18T02:29:03;11.65;;;7.85;;
60430;SDS011;46285;45.122;20.726;2022-08-18T02:31:29;10.90;;;8.00;;
60430;SDS011;46285;45.122;20.726;2022-08-18T02:33:56;12.52;;;7.75;;
60430;SDS011;46285;45.122;20.726;2022-08-18T02:36:23;16.17;;;8.18;;
60430;SDS011;46285;45.122;20.726;2022-08-18T02:38:49;13.93;;;8.10;;
60430;SDS011;46285;45.122;20.726;2022-08-18T02:41:16;23.88;;;10.18;;
60430;SDS011;46285;45.122;20.726;2022-08-18T02:43:42;17.48;;;8.73;;
60430;SDS011;46285;45.122;20.726;2022-08-18T02:46:08;17.73;;;9.27;;
60430;SDS011;46285;45.122;20.726;2022-08-18T02:48:35;13.18;;;8.02;;
60430;SDS011;46285;45.122;20.726;2022-08-18T02:51:14;18.30;;;9.07;;
60430;SDS011;46285;45.122;20.726;2022-08-18T02:53:42;16.75;;;8.90;;
60430;SDS011;46285;45.122;20.726;2022-08-18T02:56:09;17.50;;;8.48;;
60430;SDS011;46285;45.122;20.726;2022-08-18T02:58:46;17.42;;;7.95;;
60430;SDS011;46285;45.122;20.726;2022-08-18T03:01:12;15.07;;;8.60;;
60430;SDS011;46285;45.122;20.726;2022-08-18T03:03:39;12.37;;;7.80;;
60430;SDS011;46285;45.122;20.726;2022-08-18T03:06:05;13.88;;;8.00;;
60430;SDS011;46285;45.122;20.726;2022-08-18T03:08:32;16.60;;;8.93;;
60430;SDS011;46285;45.122;20.726;2022-08-18T03:10:59;12.48;;;8.43;;
60430;SDS011;46285;45.122;20.726;2022-08-18T03:15:52;14.55;;;8.18;;
60430;SDS011;46285;45.122;20.726;2022-08-18T03:18:18;12.98;;;8.25;;
60430;SDS011;46285;45.122;20.726;2022-08-18T03:20:46;10.82;;;7.90;;
60430;SDS011;46285;45.122;20.726;2022-08-18T03:23:12;12.30;;;7.38;;
60430;SDS011;46285;45.122;20.726;2022-08-18T03:25:44;15.98;;;7.75;;
60430;SDS011;46285;45.122;20.726;2022-08-18T03:28:11;12.48;;;8.15;;
60430;SDS011;46285;45.122;20.726;2022-08-18T03:30:37;12.45;;;8.55;;
60430;SDS011;46285;45.122;20.726;2022-08-18T03:33:04;11.13;;;8.25;;
60430;SDS011;46285;45.122;20.726;2022-08-18T03:35:30;17.15;;;8.80;;
60430;SDS011;46285;45.122;20.726;2022-08-18T03:37:59;13.55;;;9.27;;
60430;SDS011;46285;45.122;20.726;2022-08-18T03:40:25;15.60;;;8.23;;
60430;SDS011;46285;45.122;20.726;2022-08-18T03:42:52;16.88;;;10.05;;
60430;SDS011;46285;45.122;20.726;2022-08-18T03:45:18;12.68;;;8.32;;
60430;SDS011;46285;45.122;20.726;2022-08-18T03:47:44;19.80;;;9.55;;
60430;SDS011;46285;45.122;20.726;2022-08-18T03:50:10;15.02;;;9.85;;
60430;SDS011;46285;45.122;20.726;2022-08-18T03:52:37;13.95;;;9.00;;
60430;SDS011;46285;45.122;20.726;2022-08-18T03:55:04;11.18;;;9.07;;
60430;SDS011;46285;45.122;20.726;2022-08-18T03:57:30;17.35;;;9.13;;
60430;SDS011;46285;45.122;20.726;2022-08-18T03:59:56;12.77;;;9.23;;
60430;SDS011;46285;45.122;20.726;2022-08-18T04:02:23;14.43;;;9.18;;
60430;SDS011;46285;45.122;20.726;2022-08-18T04:04:49;14.80;;;9.85;;
60430;SDS011;46285;45.122;20.726;2022-08-18T04:07:15;11.13;;;7.68;;
60430;SDS011;46285;45.122;20.726;2022-08-18T04:09:41;15.05;;;8.73;;
60430;SDS011;46285;45.122;20.726;2022-08-18T04:12:13;14.90;;;8.93;;
60430;SDS011;46285;45.122;20.726;2022-08-18T04:14:40;14.10;;;9.10;;
60430;SDS011;46285;45.122;20.726;2022-08-18T04:19:33;12.68;;;9.15;;
60430;SDS011;46285;45.122;20.726;2022-08-18T04:22:00;12.63;;;8.90;;
60430;SDS011;46285;45.122;20.726;2022-08-18T04:24:30;15.30;;;8.43;;
60430;SDS011;46285;45.122;20.726;2022-08-18T04:26:58;13.77;;;8.55;;
60430;SDS011;46285;45.122;20.726;2022-08-18T04:29:25;15.82;;;8.63;;
60430;SDS011;46285;45.122;20.726;2022-08-18T04:31:52;13.93;;;8.25;;
60430;SDS011;46285;45.122;20.726;2022-08-18T04:34:19;19.15;;;9.63;;
60430;SDS011;46285;45.122;20.726;2022-08-18T04:36:47;12.60;;;8.27;;
60430;SDS011;46285;45.122;20.726;2022-08-18T04:39:13;26.52;;;10.93;;
60430;SDS011;46285;45.122;20.726;2022-08-18T04:41:40;17.92;;;9.57;;
60430;SDS011;46285;45.122;20.726;2022-08-18T04:44:07;12.68;;;7.55;;
60430;SDS011;46285;45.122;20.726;2022-08-18T04:46:35;11.55;;;8.48;;
60430;SDS011;46285;45.122;20.726;2022-08-18T04:49:03;12.32;;;8.00;;
60430;SDS011;46285;45.122;20.726;2022-08-18T04:51:32;13.98;;;8.13;;
60430;SDS011;46285;45.122;20.726;2022-08-18T04:53:58;14.38;;;8.65;;
60430;SDS011;46285;45.122;20.726;2022-08-18T04:56:30;13.83;;;7.73;;
60430;SDS011;46285;45.122;20.726;2022-08-18T04:58:59;10.27;;;7.32;;
60430;SDS011;46285;45.122;20.726;2022-08-18T05:01:27;14.20;;;8.23;;
60430;SDS011;46285;45.122;20.726;2022-08-18T05:03:55;17.30;;;7.60;;
60430;SDS011;46285;45.122;20.726;2022-08-18T05:06:22;15.75;;;8.30;;
60430;SDS011;46285;45.122;20.726;2022-08-18T05:08:55;14.93;;;7.55;;
60430;SDS011;46285;45.122;20.726;2022-08-18T05:11:22;19.00;;;8.52;;
60430;SDS011;46285;45.122;20.726;2022-08-18T05:13:49;13.05;;;8.05;;
60430;SDS011;46285;45.122;20.726;2022-08-18T05:16:19;11.35;;;8.05;;
60430;SDS011;46285;45.122;20.726;2022-08-18T05:18:46;15.93;;;8.23;;
60430;SDS011;46285;45.122;20.726;2022-08-18T05:21:12;13.55;;;7.03;;
60430;SDS011;46285;45.122;20.726;2022-08-18T05:23:40;11.73;;;7.25;;
60430;SDS011;46285;45.122;20.726;2022-08-18T05:26:07;12.80;;;7.47;;
60430;SDS011;46285;45.122;20.726;2022-08-18T05:28:33;22.27;;;8.57;;
60430;SDS011;46285;45.122;20.726;2022-08-18T05:31:08;11.40;;;6.65;;
60430;SDS011;46285;45.122;20.726;2022-08-18T05:33:36;12.57;;;7.13;;
60430;SDS011;46285;45.122;20.726;2022-08-18T05:36:08;10.23;;;7.28;;
60430;SDS011;46285;45.122;20.726;2022-08-18T05:43:30;10.43;;;7.20;;
60430;SDS011;46285;45.122;20.726;2022-08-18T05:45:56;15.35;;;7.07;;
60430;SDS011;46285;45.122;20.726;2022-08-18T05:48:24;14.90;;;7.38;;
60430;SDS011;46285;45.122;20.726;2022-08-18T05:50:55;10.15;;;7.07;;
60430;SDS011;46285;45.122;20.726;2022-08-18T05:53:24;14.63;;;7.57;;
60430;SDS011;46285;45.122;20.726;2022-08-18T05:56:10;21.75;;;8.40;;
60430;SDS011;46285;45.122;20.726;2022-08-18T05:58:56;16.80;;;7.65;;
60430;SDS011;46285;45.122;20.726;2022-08-18T06:01:27;13.48;;;6.60;;
60430;SDS011;46285;45.122;20.726;2022-08-18T06:04:19;16.45;;;7.22;;
60430;SDS011;46285;45.122;20.726;2022-08-18T06:06:47;10.35;;;6.10;;
60430;SDS011;46285;45.122;20.726;2022-08-18T06:11:47;10.30;;;5.82;;
60430;SDS011;46285;45.122;20.726;2022-08-18T06:14:13;10.00;;;6.00;;
60430;SDS011;46285;45.122;20.726;2022-08-18T06:26:58;11.05;;;6.00;;
60430;SDS011;46285;45.122;20.726;2022-08-18T06:34:34;11.85;;;6.07;;
60430;SDS011;46285;45.122;20.726;2022-08-18T06:39:33;15.52;;;6.18;;
60430;SDS011;46285;45.122;20.726;2022-08-18T06:42:00;10.43;;;6.13;;
60430;SDS011;46285;45.122;20.726;2022-08-18T06:44:44;13.27;;;5.80;;
60430;SDS011;46285;45.122;20.726;2022-08-18T06:47:16;10.90;;;5.85;;
60430;SDS011;46285;45.122;20.726;2022-08-18T06:52:32;15.93;;;6.07;;
60430;SDS011;46285;45.122;20.726;2022-08-18T06:55:17;11.80;;;5.32;;
60430;SDS011;46285;45.122;20.726;2022-08-18T06:57:58;11.70;;;5.60;;
60430;SDS011;46285;45.122;20.726;2022-08-18T07:00:28;21.92;;;5.88;;
60430;SDS011;46285;45.122;20.726;2022-08-18T07:05:36;13.73;;;5.38;;
60430;SDS011;46285;45.122;20.726;2022-08-18T07:10:36;15.75;;;6.43;;
60430;SDS011;46285;45.122;20.726;2022-08-18T07:15:38;17.48;;;5.57;;
60430;SDS011;46285;45.122;20.726;2022-08-18T07:18:05;15.05;;;5.10;;
60430;SDS011;46285;45.122;20.726;2022-08-18T07:20:54;12.13;;;4.65;;
60430;SDS011;46285;45.122;20.726;2022-08-18T07:25:47;8.60;;;4.97;;
60430;SDS011;46285;45.122;20.726;2022-08-18T07:33:39;10.07;;;5.03;;
60430;SDS011;46285;45.122;20.726;2022-08-18T07:36:07;10.00;;;5.60;;
60430;SDS011;46285;45.122;20.726;2022-08-18T07:38:51;20.17;;;5.97;;
60430;SDS011;46285;45.122;20.726;2022-08-18T07:41:32;11.55;;;5.75;;
60430;SDS011;46285;45.122;20.726;2022-08-18T07:44:48;12.23;;;5.47;;
60430;SDS011;46285;45.122;20.726;2022-08-18T07:46:49;9.85;;;5.10;;
60430;SDS011;46285;45.122;20.726;2022-08-18T07:49:21;14.25;;;6.03;;
60430;SDS011;46285;45.122;20.726;2022-08-18T08:00:03;9.25;;;4.30;;
60430;SDS011;46285;45.122;20.726;2022-08-18T08:02:33;9.77;;;3.92;;
60430;SDS011;46285;45.122;20.726;2022-08-18T08:05:03;14.30;;;5.45;;
60430;SDS011;46285;45.122;20.726;2022-08-18T08:07:46;9.50;;;4.30;;
60430;SDS011;46285;45.122;20.726;2022-08-18T08:13:20;11.60;;;4.25;;
60430;SDS011;46285;45.122;20.726;2022-08-18T08:15:53;11.13;;;4.15;;
60430;SDS011;46285;45.122;20.726;2022-08-18T08:18:38;12.73;;;5.00;;
60430;SDS011;46285;45.122;20.726;2022-08-18T08:21:16;9.93;;;4.57;;
60430;SDS011;46285;45.122;20.726;2022-08-18T08:23:49;10.23;;;4.38;;
60430;SDS011;46285;45.122;20.726;2022-08-18T08:26:37;10.02;;;4.22;;
60430;SDS011;46285;45.122;20.726;2022-08-18T08:31:36;11.25;;;3.97;;
60430;SDS011;46285;45.122;20.726;2022-08-18T08:36:33;9.55;;;3.85;;
60430;SDS011;46285;45.122;20.726;2022-08-18T08:39:03;10.65;;;4.28;;
60430;SDS011;46285;45.122;20.726;2022-08-18T08:46:23;11.82;;;7.60;;
60430;SDS011;46285;45.122;20.726;2022-08-18T08:49:03;19.73;;;16.08;;
60430;SDS011;46285;45.122;20.726;2022-08-18T08:54:11;13.30;;;4.80;;
60430;SDS011;46285;45.122;20.726;2022-08-18T08:56:43;13.90;;;4.38;;
60430;SDS011;46285;45.122;20.726;2022-08-18T08:59:11;10.02;;;5.47;;
60430;SDS011;46285;45.122;20.726;2022-08-18T09:07:29;8.23;;;3.70;;
60430;SDS011;46285;45.122;20.726;2022-08-18T09:10:11;13.05;;;3.67;;
60430;SDS011;46285;45.122;20.726;2022-08-18T09:15:35;9.60;;;4.30;;
60430;SDS011;46285;45.122;20.726;2022-08-18T09:18:02;10.07;;;3.95;;
60430;SDS011;46285;45.122;20.726;2022-08-18T09:20:41;8.52;;;3.83;;
60430;SDS011;46285;45.122;20.726;2022-08-18T09:23:15;10.60;;;3.25;;
60430;SDS011;46285;45.122;20.726;2022-08-18T09:25:44;8.15;;;3.50;;
60430;SDS011;46285;45.122;20.726;2022-08-18T09:30:49;7.68;;;4.35;;
60430;SDS011;46285;45.122;20.726;2022-08-18T09:38:18;9.90;;;3.55;;
60430;SDS011;46285;45.122;20.726;2022-08-18T09:41:04;7.30;;;3.60;;
60430;SDS011;46285;45.122;20.726;2022-08-18T09:43:54;10.63;;;3.33;;
60430;SDS011;46285;45.122;20.726;2022-08-18T09:49:30;6.80;;;3.10;;
60430;SDS011;46285;45.122;20.726;2022-08-18T09:54:50;9.02;;;3.42;;
60430;SDS011;46285;45.122;20.726;2022-08-18T09:57:21;9.32;;;4.18;;
60430;SDS011;46285;45.122;20.726;2022-08-18T10:07:45;8.50;;;4.20;;
60430;SDS011;46285;45.122;20.726;2022-08-18T10:12:55;8.88;;;3.78;;
60430;SDS011;46285;45.122;20.726;2022-08-18T10:18:17;10.00;;;4.15;;
60430;SDS011;46285;45.122;20.726;2022-08-18T10:23:41;9.90;;;4.10;;
60430;SDS011;46285;45.122;20.726;2022-08-18T10:28:55;7.55;;;3.80;;
60430;SDS011;46285;45.122;20.726;2022-08-18T10:31:22;9.10;;;4.35;;
60430;SDS011;46285;45.122;20.726;2022-08-18T10:33:56;7.60;;;3.70;;
60430;SDS011;46285;45.122;20.726;2022-08-18T10:39:13;12.52;;;3.92;;
60430;SDS011;46285;45.122;20.726;2022-08-18T10:41:54;7.63;;;3.78;;
60430;SDS011;46285;45.122;20.726;2022-08-18T10:44:21;8.80;;;3.92;;
60430;SDS011;46285;45.122;20.726;2022-08-18T10:46:49;8.63;;;4.72;;
60430;SDS011;46285;45.122;20.726;2022-08-18T10:49:21;9.57;;;4.22;;
60430;SDS011;46285;45.122;20.726;2022-08-18T10:54:36;10.50;;;4.20;;
60430;SDS011;46285;45.122;20.726;2022-08-18T10:57:22;10.02;;;4.00;;
60430;SDS011;46285;45.122;20.726;2022-08-18T11:00:08;7.78;;;3.83;;
60430;SDS011;46285;45.122;20.726;2022-08-18T11:05:08;8.35;;;4.65;;
60430;SDS011;46285;45.122;20.726;2022-08-18T11:07:36;10.32;;;3.53;;
60430;SDS011;46285;45.122;20.726;2022-08-18T11:10:17;21.55;;;5.38;;
60430;SDS011;46285;45.122;20.726;2022-08-18T11:20:21;7.55;;;3.45;;
60430;SDS011;46285;45.122;20.726;2022-08-18T11:22:50;8.35;;;3.45;;
60430;SDS011;46285;45.122;20.726;2022-08-18T11:25:19;7.63;;;3.22;;
60430;SDS011;46285;45.122;20.726;2022-08-18T11:27:47;7.72;;;3.60;;
60430;SDS011;46285;45.122;20.726;2022-08-18T11:30:13;5.75;;;3.25;;
60430;SDS011;46285;45.122;20.726;2022-08-18T11:32:40;8.43;;;3.80;;
60430;SDS011;46285;45.122;20.726;2022-08-18T11:35:14;8.65;;;3.58;;
60430;SDS011;46285;45.122;20.726;2022-08-18T11:37:46;7.40;;;3.70;;
60430;SDS011;46285;45.122;20.726;2022-08-18T11:42:59;7.05;;;3.20;;
60430;SDS011;46285;45.122;20.726;2022-08-18T11:45:46;8.80;;;3.60;;
60430;SDS011;46285;45.122;20.726;2022-08-18T11:50:47;9.07;;;2.97;;
60430;SDS011;46285;45.122;20.726;2022-08-18T11:53:15;8.32;;;3.50;;
60430;SDS011;46285;45.122;20.726;2022-08-18T11:55:49;6.78;;;3.00;;
60430;SDS011;46285;45.122;20.726;2022-08-18T11:58:37;8.60;;;3.35;;
60430;SDS011;46285;45.122;20.726;2022-08-18T12:01:03;7.73;;;3.40;;
60430;SDS011;46285;45.122;20.726;2022-08-18T12:06:12;6.53;;;3.38;;
60430;SDS011;46285;45.122;20.726;2022-08-18T12:08:52;6.30;;;2.60;;
60430;SDS011;46285;45.122;20.726;2022-08-18T12:11:20;6.78;;;3.30;;
60430;SDS011;46285;45.122;20.726;2022-08-18T12:13:47;9.35;;;3.53;;
60430;SDS011;46285;45.122;20.726;2022-08-18T12:18:59;9.70;;;3.05;;
60430;SDS011;46285;45.122;20.726;2022-08-18T12:23:53;6.47;;;3.00;;
60430;SDS011;46285;45.122;20.726;2022-08-18T12:26:19;6.82;;;3.30;;
60430;SDS011;46285;45.122;20.726;2022-08-18T12:28:45;5.50;;;3.10;;
60430;SDS011;46285;45.122;20.726;2022-08-18T12:33:37;9.77;;;3.30;;
60430;SDS011;46285;45.122;20.726;2022-08-18T12:36:04;10.13;;;3.10;;
60430;SDS011;46285;45.122;20.726;2022-08-18T12:38:31;7.57;;;3.00;;
60430;SDS011;46285;45.122;20.726;2022-08-18T12:40:58;12.45;;;4.10;;
60430;SDS011;46285;45.122;20.726;2022-08-18T12:43:24;6.97;;;2.97;;
60430;SDS011;46285;45.122;20.726;2022-08-18T12:45:51;12.25;;;3.08;;
60430;SDS011;46285;45.122;20.726;2022-08-18T12:48:17;6.55;;;2.60;;
60430;SDS011;46285;45.122;20.726;2022-08-18T12:50:43;8.23;;;3.35;;
60430;SDS011;46285;45.122;20.726;2022-08-18T12:53:10;7.88;;;3.40;;
60430;SDS011;46285;45.122;20.726;2022-08-18T12:55:38;7.93;;;3.17;;
60430;SDS011;46285;45.122;20.726;2022-08-18T12:58:05;7.15;;;3.10;;
60430;SDS011;46285;45.122;20.726;2022-08-18T13:00:32;7.45;;;3.45;;
60430;SDS011;46285;45.122;20.726;2022-08-18T13:02:59;10.20;;;3.50;;
60430;SDS011;46285;45.122;20.726;2022-08-18T13:05:25;8.23;;;3.67;;
60430;SDS011;46285;45.122;20.726;2022-08-18T13:07:52;9.40;;;3.58;;
60430;SDS011;46285;45.122;20.726;2022-08-18T13:10:18;6.57;;;2.97;;
60430;SDS011;46285;45.122;20.726;2022-08-18T13:12:45;7.15;;;3.50;;
60430;SDS011;46285;45.122;20.726;2022-08-18T13:17:37;8.95;;;3.25;;
60430;SDS011;46285;45.122;20.726;2022-08-18T13:20:05;7.40;;;3.67;;
60430;SDS011;46285;45.122;20.726;2022-08-18T13:22:35;7.22;;;3.83;;
60430;SDS011;46285;45.122;20.726;2022-08-18T13:25:02;6.63;;;3.75;;
60430;SDS011;46285;45.122;20.726;2022-08-18T13:27:31;8.95;;;3.30;;
60430;SDS011;46285;45.122;20.726;2022-08-18T13:32:23;10.85;;;3.92;;
60430;SDS011;46285;45.122;20.726;2022-08-18T13:37:16;6.95;;;3.45;;
60430;SDS011;46285;45.122;20.726;2022-08-18T13:39:42;8.63;;;3.42;;
60430;SDS011;46285;45.122;20.726;2022-08-18T13:42:08;14.57;;;4.13;;
60430;SDS011;46285;45.122;20.726;2022-08-18T13:44:34;12.90;;;4.82;;
60430;SDS011;46285;45.122;20.726;2022-08-18T13:47:01;8.43;;;3.70;;
60430;SDS011;46285;45.122;20.726;2022-08-18T13:49:28;6.25;;;3.70;;
60430;SDS011;46285;45.122;20.726;2022-08-18T13:51:54;8.52;;;3.80;;
60430;SDS011;46285;45.122;20.726;2022-08-18T13:54:27;8.73;;;4.03;;
60430;SDS011;46285;45.122;20.726;2022-08-18T13:56:53;9.93;;;3.65;;
60430;SDS011;46285;45.122;20.726;2022-08-18T13:59:20;10.77;;;4.20;;
60430;SDS011;46285;45.122;20.726;2022-08-18T14:01:47;8.68;;;3.60;;
60430;SDS011;46285;45.122;20.726;2022-08-18T14:04:15;8.63;;;4.10;;
60430;SDS011;46285;45.122;20.726;2022-08-18T14:09:08;10.43;;;3.95;;
60430;SDS011;46285;45.122;20.726;2022-08-18T14:11:34;10.93;;;3.35;;
60430;SDS011;46285;45.122;20.726;2022-08-18T14:14:02;8.55;;;3.78;;
60430;SDS011;46285;45.122;20.726;2022-08-18T14:16:28;9.88;;;3.30;;
60430;SDS011;46285;45.122;20.726;2022-08-18T14:18:55;11.05;;;3.58;;
60430;SDS011;46285;45.122;20.726;2022-08-18T14:21:44;8.10;;;4.13;;
60430;SDS011;46285;45.122;20.726;2022-08-18T14:24:29;7.88;;;3.67;;
60430;SDS011;46285;45.122;20.726;2022-08-18T14:27:14;7.05;;;3.58;;
60430;SDS011;46285;45.122;20.726;2022-08-18T14:29:40;9.68;;;4.13;;
60430;SDS011;46285;45.122;20.726;2022-08-18T14:32:07;9.60;;;4.30;;
60430;SDS011;46285;45.122;20.726;2022-08-18T14:34:34;11.27;;;4.35;;
60430;SDS011;46285;45.122;20.726;2022-08-18T14:37:00;8.35;;;3.85;;
60430;SDS011;46285;45.122;20.726;2022-08-18T14:39:27;12.63;;;4.28;;
60430;SDS011;46285;45.122;20.726;2022-08-18T14:41:53;12.63;;;4.40;;
60430;SDS011;46285;45.122;20.726;2022-08-18T14:44:21;10.45;;;4.20;;
60430;SDS011;46285;45.122;20.726;2022-08-18T14:46:47;8.70;;;4.22;;
60430;SDS011;46285;45.122;20.726;2022-08-18T14:49:13;11.70;;;4.25;;
60430;SDS011;46285;45.122;20.726;2022-08-18T14:51:40;7.88;;;4.47;;
60430;SDS011;46285;45.122;20.726;2022-08-18T14:54:10;10.20;;;4.05;;
60430;SDS011;46285;45.122;20.726;2022-08-18T14:56:36;11.65;;;4.50;;
60430;SDS011;46285;45.122;20.726;2022-08-18T14:59:03;9.88;;;4.70;;
60430;SDS011;46285;45.122;20.726;2022-08-18T15:01:32;8.32;;;4.00;;
60430;SDS011;46285;45.122;20.726;2022-08-18T15:03:58;11.95;;;4.55;;
60430;SDS011;46285;45.122;20.726;2022-08-18T15:08:50;8.60;;;3.83;;
60430;SDS011;46285;45.122;20.726;2022-08-18T15:11:17;12.43;;;4.90;;
60430;SDS011;46285;45.122;20.726;2022-08-18T15:13:43;14.93;;;4.63;;
60430;SDS011;46285;45.122;20.726;2022-08-18T15:16:11;8.50;;;3.90;;
60430;SDS011;46285;45.122;20.726;2022-08-18T15:18:46;9.82;;;3.80;;
60430;SDS011;46285;45.122;20.726;2022-08-18T15:21:13;9.63;;;4.25;;
60430;SDS011;46285;45.122;20.726;2022-08-18T15:23:58;7.63;;;4.22;;
60430;SDS011;46285;45.122;20.726;2022-08-18T15:26:42;19.13;;;5.72;;
60430;SDS011;46285;45.122;20.726;2022-08-18T15:29:10;12.40;;;4.60;;
60430;SDS011;46285;45.122;20.726;2022-08-18T15:31:36;11.82;;;4.82;;
60430;SDS011;46285;45.122;20.726;2022-08-18T15:34:03;14.75;;;5.50;;
60430;SDS011;46285;45.122;20.726;2022-08-18T15:36:29;7.95;;;4.15;;
60430;SDS011;46285;45.122;20.726;2022-08-18T15:38:57;12.05;;;4.75;;
60430;SDS011;46285;45.122;20.726;2022-08-18T15:41:31;11.43;;;4.50;;
60430;SDS011;46285;45.122;20.726;2022-08-18T15:43:58;9.77;;;4.22;;
60430;SDS011;46285;45.122;20.726;2022-08-18T15:46:25;9.65;;;4.82;;
60430;SDS011;46285;45.122;20.726;2022-08-18T15:48:51;12.57;;;4.25;;
60430;SDS011;46285;45.122;20.726;2022-08-18T15:51:17;9.95;;;4.80;;
60430;SDS011;46285;45.122;20.726;2022-08-18T15:53:43;11.57;;;5.40;;
60430;SDS011;46285;45.122;20.726;2022-08-18T15:56:14;16.23;;;4.25;;
60430;SDS011;46285;45.122;20.726;2022-08-18T15:58:40;12.38;;;5.15;;
60430;SDS011;46285;45.122;20.726;2022-08-18T16:01:08;13.73;;;4.93;;
60430;SDS011;46285;45.122;20.726;2022-08-18T16:03:35;11.05;;;5.18;;
60430;SDS011;46285;45.122;20.726;2022-08-18T16:08:28;10.85;;;5.05;;
60430;SDS011;46285;45.122;20.726;2022-08-18T16:10:54;13.80;;;4.53;;
60430;SDS011;46285;45.122;20.726;2022-08-18T16:15:47;10.07;;;4.30;;
60430;SDS011;46285;45.122;20.726;2022-08-18T16:18:15;11.77;;;4.63;;
60430;SDS011;46285;45.122;20.726;2022-08-18T16:20:41;9.90;;;4.43;;
60430;SDS011;46285;45.122;20.726;2022-08-18T16:23:08;14.32;;;5.85;;
60430;SDS011;46285;45.122;20.726;2022-08-18T16:25:38;13.07;;;5.32;;
60430;SDS011;46285;45.122;20.726;2022-08-18T16:28:05;8.80;;;4.72;;
60430;SDS011;46285;45.122;20.726;2022-08-18T16:30:31;9.07;;;4.65;;
60430;SDS011;46285;45.122;20.726;2022-08-18T16:35:26;13.35;;;4.70;;
60430;SDS011;46285;45.122;20.726;2022-08-18T16:37:53;11.40;;;4.90;;
60430;SDS011;46285;45.122;20.726;2022-08-18T16:40:19;8.77;;;4.78;;
60430;SDS011;46285;45.122;20.726;2022-08-18T16:42:45;10.90;;;3.95;;
60430;SDS011;46285;45.122;20.726;2022-08-18T16:45:12;14.80;;;5.47;;
60430;SDS011;46285;45.122;20.726;2022-08-18T16:50:08;20.25;;;4.68;;
60430;SDS011;46285;45.122;20.726;2022-08-18T16:52:35;16.63;;;5.43;;
60430;SDS011;46285;45.122;20.726;2022-08-18T16:55:03;12.82;;;4.80;;
60430;SDS011;46285;45.122;20.726;2022-08-18T16:57:30;20.52;;;5.72;;
60430;SDS011;46285;45.122;20.726;2022-08-18T17:00:23;28.10;;;6.53;;
60430;SDS011;46285;45.122;20.726;2022-08-18T17:03:08;19.85;;;5.22;;
60430;SDS011;46285;45.122;20.726;2022-08-18T17:06:04;16.23;;;4.70;;
60430;SDS011;46285;45.122;20.726;2022-08-18T17:08:30;19.63;;;5.22;;
60430;SDS011;46285;45.122;20.726;2022-08-18T17:11:03;16.67;;;5.90;;
60430;SDS011;46285;45.122;20.726;2022-08-18T17:13:32;21.70;;;6.18;;
60430;SDS011;46285;45.122;20.726;2022-08-18T17:15:58;32.13;;;7.60;;
60430;SDS011;46285;45.122;20.726;2022-08-18T17:18:24;34.83;;;7.50;;
60430;SDS011;46285;45.122;20.726;2022-08-18T17:20:51;39.15;;;7.55;;
60430;SDS011;46285;45.122;20.726;2022-08-18T17:23:18;43.20;;;7.88;;
60430;SDS011;46285;45.122;20.726;2022-08-18T17:25:44;34.53;;;8.63;;
60430;SDS011;46285;45.122;20.726;2022-08-18T17:28:11;42.90;;;8.05;;
60430;SDS011;46285;45.122;20.726;2022-08-18T17:30:41;44.10;;;9.10;;
60430;SDS011;46285;45.122;20.726;2022-08-18T17:33:43;48.45;;;10.45;;
60430;SDS011;46285;45.122;20.726;2022-08-18T17:36:05;39.10;;;10.60;;